sensor_id;sensor_type;location;lat;lon;timestamp;P1;durP1;ratioP1;P2;durP2;ratioP2
21621;SDS011;10973;46.706;12.340;2022-11-20T00:01:30;4.17;;;3.40;;
21621;SDS011;10973;46.706;12.340;2022-11-20T00:03:58;6.00;;;3.30;;
21621;SDS011;10973;46.706;12.340;2022-11-20T00:06:26;3.90;;;2.50;;
21621;SDS011;10973;46.706;12.340;2022-11-20T00:08:55;4.50;;;2.80;;
21621;SDS011;10973;46.706;12.340;2022-11-20T00:11:26;2.77;;;2.57;;
21621;SDS011;10973;46.706;12.340;2022-11-20T00:13:57;3.23;;;2.70;;
21621;SDS011;10973;46.706;12.340;2022-11-20T00:16:27;2.90;;;2.70;;
21621;SDS011;10973;46.706;12.340;2022-11-20T00:18:57;4.27;;;3.10;;
21621;SDS011;10973;46.706;12.340;2022-11-20T00:21:25;5.60;;;2.63;;
21621;SDS011;10973;46.706;12.340;2022-11-20T00:23:55;4.07;;;2.17;;
21621;SDS011;10973;46.706;12.340;2022-11-20T00:26:25;6.47;;;2.47;;
21621;SDS011;10973;46.706;12.340;2022-11-20T00:28:54;2.00;;;1.90;;
21621;SDS011;10973;46.706;12.340;2022-11-20T00:31:27;2.57;;;2.20;;
21621;SDS011;10973;46.706;12.340;2022-11-20T00:33:56;4.97;;;2.50;;
21621;SDS011;10973;46.706;12.340;2022-11-20T00:36:24;2.93;;;2.50;;
21621;SDS011;10973;46.706;12.340;2022-11-20T00:38:55;4.33;;;2.70;;
21621;SDS011;10973;46.706;12.340;2022-11-20T00:41:24;2.27;;;1.63;;
21621;SDS011;10973;46.706;12.340;2022-11-20T00:43:54;2.73;;;2.07;;
21621;SDS011;10973;46.706;12.340;2022-11-20T00:46:23;4.37;;;2.27;;
21621;SDS011;10973;46.706;12.340;2022-11-20T00:48:52;2.27;;;1.90;;
21621;SDS011;10973;46.706;12.340;2022-11-20T00:51:21;2.47;;;2.27;;
21621;SDS011;10973;46.706;12.340;2022-11-20T00:53:51;2.70;;;2.50;;
21621;SDS011;10973;46.706;12.340;2022-11-20T00:56:21;2.57;;;2.33;;
21621;SDS011;10973;46.706;12.340;2022-11-20T00:58:49;2.33;;;2.00;;
21621;SDS011;10973;46.706;12.340;2022-11-20T01:01:17;4.60;;;2.30;;
21621;SDS011;10973;46.706;12.340;2022-11-20T01:03:51;3.83;;;2.50;;
21621;SDS011;10973;46.706;12.340;2022-11-20T01:06:24;4.50;;;2.50;;
21621;SDS011;10973;46.706;12.340;2022-11-20T01:09:04;5.37;;;2.43;;
21621;SDS011;10973;46.706;12.340;2022-11-20T01:11:39;2.80;;;2.33;;
21621;SDS011;10973;46.706;12.340;2022-11-20T01:14:10;2.27;;;2.07;;
21621;SDS011;10973;46.706;12.340;2022-11-20T01:16:42;5.67;;;3.20;;
21621;SDS011;10973;46.706;12.340;2022-11-20T01:19:13;2.30;;;2.10;;
21621;SDS011;10973;46.706;12.340;2022-11-20T01:21:45;2.07;;;1.97;;
21621;SDS011;10973;46.706;12.340;2022-11-20T01:24:18;4.50;;;2.20;;
21621;SDS011;10973;46.706;12.340;2022-11-20T01:26:47;2.90;;;2.03;;
21621;SDS011;10973;46.706;12.340;2022-11-20T01:29:18;2.03;;;1.93;;
21621;SDS011;10973;46.706;12.340;2022-11-20T01:31:51;4.70;;;2.10;;
21621;SDS011;10973;46.706;12.340;2022-11-20T01:34:19;5.47;;;2.50;;
21621;SDS011;10973;46.706;12.340;2022-11-20T01:36:49;3.57;;;2.23;;
21621;SDS011;10973;46.706;12.340;2022-11-20T01:39:18;4.13;;;2.57;;
21621;SDS011;10973;46.706;12.340;2022-11-20T01:41:49;3.10;;;2.00;;
21621;SDS011;10973;46.706;12.340;2022-11-20T01:44:20;2.23;;;2.00;;
21621;SDS011;10973;46.706;12.340;2022-11-20T01:47:08;4.93;;;2.10;;
21621;SDS011;10973;46.706;12.340;2022-11-20T01:49:43;2.57;;;2.20;;
21621;SDS011;10973;46.706;12.340;2022-11-20T01:52:20;4.20;;;2.13;;
21621;SDS011;10973;46.706;12.340;2022-11-20T01:55:10;8.87;;;2.47;;
21621;SDS011;10973;46.706;12.340;2022-11-20T01:57:48;4.73;;;2.00;;
21621;SDS011;10973;46.706;12.340;2022-11-20T02:00:16;4.27;;;2.07;;
21621;SDS011;10973;46.706;12.340;2022-11-20T02:02:59;3.23;;;2.07;;
21621;SDS011;10973;46.706;12.340;2022-11-20T02:08:21;7.27;;;2.27;;
21621;SDS011;10973;46.706;12.340;2022-11-20T02:10:49;1.97;;;1.87;;
21621;SDS011;10973;46.706;12.340;2022-11-20T02:13:17;4.13;;;2.07;;
21621;SDS011;10973;46.706;12.340;2022-11-20T02:15:44;3.60;;;2.10;;
21621;SDS011;10973;46.706;12.340;2022-11-20T02:18:16;2.50;;;2.20;;
21621;SDS011;10973;46.706;12.340;2022-11-20T02:20:47;2.60;;;1.90;;
21621;SDS011;10973;46.706;12.340;2022-11-20T02:25:57;4.37;;;1.90;;
21621;SDS011;10973;46.706;12.340;2022-11-20T02:28:28;2.47;;;1.80;;
21621;SDS011;10973;46.706;12.340;2022-11-20T02:30:55;4.17;;;1.90;;
21621;SDS011;10973;46.706;12.340;2022-11-20T02:33:22;2.20;;;2.00;;
21621;SDS011;10973;46.706;12.340;2022-11-20T02:35:50;2.40;;;1.73;;
21621;SDS011;10973;46.706;12.340;2022-11-20T02:38:17;2.90;;;2.10;;
21621;SDS011;10973;46.706;12.340;2022-11-20T02:40:44;3.97;;;2.00;;
21621;SDS011;10973;46.706;12.340;2022-11-20T02:43:16;1.40;;;1.40;;
21621;SDS011;10973;46.706;12.340;2022-11-20T02:45:44;3.03;;;2.00;;
21621;SDS011;10973;46.706;12.340;2022-11-20T02:48:11;3.13;;;1.90;;
21621;SDS011;10973;46.706;12.340;2022-11-20T02:50:38;1.93;;;1.70;;
21621;SDS011;10973;46.706;12.340;2022-11-20T02:53:07;3.77;;;2.10;;
21621;SDS011;10973;46.706;12.340;2022-11-20T02:55:34;2.53;;;2.00;;
21621;SDS011;10973;46.706;12.340;2022-11-20T02:58:02;4.83;;;2.17;;
21621;SDS011;10973;46.706;12.340;2022-11-20T03:00:30;5.87;;;1.90;;
21621;SDS011;10973;46.706;12.340;2022-11-20T03:02:57;5.97;;;2.13;;
21621;SDS011;10973;46.706;12.340;2022-11-20T03:05:24;5.27;;;2.03;;
21621;SDS011;10973;46.706;12.340;2022-11-20T03:07:52;3.90;;;2.03;;
21621;SDS011;10973;46.706;12.340;2022-11-20T03:10:19;3.13;;;2.40;;
21621;SDS011;10973;46.706;12.340;2022-11-20T03:12:46;3.70;;;2.03;;
21621;SDS011;10973;46.706;12.340;2022-11-20T03:15:14;9.43;;;2.30;;
21621;SDS011;10973;46.706;12.340;2022-11-20T03:17:41;4.63;;;2.30;;
21621;SDS011;10973;46.706;12.340;2022-11-20T03:20:08;4.40;;;1.93;;
21621;SDS011;10973;46.706;12.340;2022-11-20T03:22:36;2.53;;;1.87;;
21621;SDS011;10973;46.706;12.340;2022-11-20T03:25:04;2.33;;;1.97;;
21621;SDS011;10973;46.706;12.340;2022-11-20T03:27:33;3.90;;;2.07;;
21621;SDS011;10973;46.706;12.340;2022-11-20T03:30:01;3.87;;;2.33;;
21621;SDS011;10973;46.706;12.340;2022-11-20T03:32:29;4.13;;;2.30;;
21621;SDS011;10973;46.706;12.340;2022-11-20T03:34:56;4.40;;;2.33;;
21621;SDS011;10973;46.706;12.340;2022-11-20T03:37:23;4.47;;;2.00;;
21621;SDS011;10973;46.706;12.340;2022-11-20T03:39:50;4.20;;;1.73;;
21621;SDS011;10973;46.706;12.340;2022-11-20T03:42:17;7.60;;;1.77;;
21621;SDS011;10973;46.706;12.340;2022-11-20T03:44:45;4.20;;;2.33;;
21621;SDS011;10973;46.706;12.340;2022-11-20T03:47:12;3.83;;;1.80;;
21621;SDS011;10973;46.706;12.340;2022-11-20T03:49:39;2.63;;;1.80;;
21621;SDS011;10973;46.706;12.340;2022-11-20T03:52:06;2.80;;;2.03;;
21621;SDS011;10973;46.706;12.340;2022-11-20T03:54:34;2.77;;;1.80;;
21621;SDS011;10973;46.706;12.340;2022-11-20T03:57:01;3.10;;;2.17;;
21621;SDS011;10973;46.706;12.340;2022-11-20T03:59:28;2.93;;;1.60;;
21621;SDS011;10973;46.706;12.340;2022-11-20T04:01:55;3.53;;;1.90;;
21621;SDS011;10973;46.706;12.340;2022-11-20T04:04:23;1.90;;;1.80;;
21621;SDS011;10973;46.706;12.340;2022-11-20T04:06:50;2.13;;;2.00;;
21621;SDS011;10973;46.706;12.340;2022-11-20T04:09:17;8.43;;;2.40;;
21621;SDS011;10973;46.706;12.340;2022-11-20T04:11:45;10.70;;;2.17;;
21621;SDS011;10973;46.706;12.340;2022-11-20T04:14:13;3.30;;;2.17;;
21621;SDS011;10973;46.706;12.340;2022-11-20T04:16:42;3.20;;;2.67;;
21621;SDS011;10973;46.706;12.340;2022-11-20T04:19:10;3.53;;;2.53;;
21621;SDS011;10973;46.706;12.340;2022-11-20T04:21:41;6.90;;;2.30;;
21621;SDS011;10973;46.706;12.340;2022-11-20T04:24:10;4.57;;;2.07;;
21621;SDS011;10973;46.706;12.340;2022-11-20T04:26:37;4.80;;;2.07;;
21621;SDS011;10973;46.706;12.340;2022-11-20T04:29:05;3.13;;;1.80;;
21621;SDS011;10973;46.706;12.340;2022-11-20T04:31:36;5.37;;;2.40;;
21621;SDS011;10973;46.706;12.340;2022-11-20T04:34:05;3.23;;;2.30;;
21621;SDS011;10973;46.706;12.340;2022-11-20T04:36:34;7.03;;;3.77;;
21621;SDS011;10973;46.706;12.340;2022-11-20T04:39:03;4.90;;;3.90;;
21621;SDS011;10973;46.706;12.340;2022-11-20T04:41:33;5.17;;;4.33;;
21621;SDS011;10973;46.706;12.340;2022-11-20T04:44:03;3.83;;;3.43;;
21621;SDS011;10973;46.706;12.340;2022-11-20T04:46:33;4.60;;;2.90;;
21621;SDS011;10973;46.706;12.340;2022-11-20T04:49:08;5.27;;;4.00;;
21621;SDS011;10973;46.706;12.340;2022-11-20T04:51:38;7.43;;;3.37;;
21621;SDS011;10973;46.706;12.340;2022-11-20T04:54:05;4.23;;;2.57;;
21621;SDS011;10973;46.706;12.340;2022-11-20T04:56:32;3.00;;;2.60;;
21621;SDS011;10973;46.706;12.340;2022-11-20T04:59:00;2.87;;;2.57;;
21621;SDS011;10973;46.706;12.340;2022-11-20T05:01:29;3.17;;;2.87;;
21621;SDS011;10973;46.706;12.340;2022-11-20T05:03:56;6.43;;;3.80;;
21621;SDS011;10973;46.706;12.340;2022-11-20T05:06:24;4.60;;;2.93;;
21621;SDS011;10973;46.706;12.340;2022-11-20T05:08:51;3.63;;;2.90;;
21621;SDS011;10973;46.706;12.340;2022-11-20T05:11:19;4.73;;;3.17;;
21621;SDS011;10973;46.706;12.340;2022-11-20T05:13:49;3.60;;;3.30;;
21621;SDS011;10973;46.706;12.340;2022-11-20T05:16:22;5.23;;;3.53;;
21621;SDS011;10973;46.706;12.340;2022-11-20T05:18:51;14.30;;;4.70;;
21621;SDS011;10973;46.706;12.340;2022-11-20T05:21:20;6.03;;;4.33;;
21621;SDS011;10973;46.706;12.340;2022-11-20T05:23:48;11.10;;;4.80;;
21621;SDS011;10973;46.706;12.340;2022-11-20T05:26:16;6.00;;;4.73;;
21621;SDS011;10973;46.706;12.340;2022-11-20T05:28:49;4.23;;;3.83;;
21621;SDS011;10973;46.706;12.340;2022-11-20T05:31:21;7.40;;;4.27;;
21621;SDS011;10973;46.706;12.340;2022-11-20T05:33:54;4.70;;;3.60;;
21621;SDS011;10973;46.706;12.340;2022-11-20T05:36:23;4.50;;;3.40;;
21621;SDS011;10973;46.706;12.340;2022-11-20T05:38:51;10.33;;;4.17;;
21621;SDS011;10973;46.706;12.340;2022-11-20T05:41:25;6.23;;;4.17;;
21621;SDS011;10973;46.706;12.340;2022-11-20T05:43:52;4.63;;;3.63;;
21621;SDS011;10973;46.706;12.340;2022-11-20T05:46:20;6.47;;;3.90;;
21621;SDS011;10973;46.706;12.340;2022-11-20T05:48:54;6.37;;;3.87;;
21621;SDS011;10973;46.706;12.340;2022-11-20T05:51:24;10.80;;;4.30;;
21621;SDS011;10973;46.706;12.340;2022-11-20T05:53:52;12.57;;;5.77;;
21621;SDS011;10973;46.706;12.340;2022-11-20T05:56:20;11.10;;;6.87;;
21621;SDS011;10973;46.706;12.340;2022-11-20T05:58:48;12.93;;;7.40;;
21621;SDS011;10973;46.706;12.340;2022-11-20T06:01:18;15.83;;;7.17;;
21621;SDS011;10973;46.706;12.340;2022-11-20T06:03:52;11.03;;;6.03;;
21621;SDS011;10973;46.706;12.340;2022-11-20T06:06:22;10.57;;;7.20;;
21621;SDS011;10973;46.706;12.340;2022-11-20T06:08:50;8.60;;;6.70;;
21621;SDS011;10973;46.706;12.340;2022-11-20T06:11:17;13.30;;;7.97;;
21621;SDS011;10973;46.706;12.340;2022-11-20T06:13:45;13.03;;;7.33;;
21621;SDS011;10973;46.706;12.340;2022-11-20T06:16:14;17.63;;;10.17;;
21621;SDS011;10973;46.706;12.340;2022-11-20T06:18:45;24.73;;;12.83;;
21621;SDS011;10973;46.706;12.340;2022-11-20T06:21:17;24.13;;;13.47;;
21621;SDS011;10973;46.706;12.340;2022-11-20T06:23:48;28.57;;;15.03;;
21621;SDS011;10973;46.706;12.340;2022-11-20T06:26:20;27.57;;;13.93;;
21621;SDS011;10973;46.706;12.340;2022-11-20T06:28:52;17.53;;;9.50;;
21621;SDS011;10973;46.706;12.340;2022-11-20T06:31:21;14.57;;;8.20;;
21621;SDS011;10973;46.706;12.340;2022-11-20T06:33:50;15.77;;;9.30;;
21621;SDS011;10973;46.706;12.340;2022-11-20T06:36:19;16.57;;;9.83;;
21621;SDS011;10973;46.706;12.340;2022-11-20T06:38:49;16.30;;;9.47;;
21621;SDS011;10973;46.706;12.340;2022-11-20T06:41:20;16.13;;;8.67;;
21621;SDS011;10973;46.706;12.340;2022-11-20T06:43:48;22.70;;;9.97;;
21621;SDS011;10973;46.706;12.340;2022-11-20T06:46:16;14.10;;;10.07;;
21621;SDS011;10973;46.706;12.340;2022-11-20T06:48:46;18.10;;;9.40;;
21621;SDS011;10973;46.706;12.340;2022-11-20T06:51:15;17.03;;;10.03;;
21621;SDS011;10973;46.706;12.340;2022-11-20T06:53:43;14.80;;;9.27;;
21621;SDS011;10973;46.706;12.340;2022-11-20T06:56:10;18.53;;;10.93;;
21621;SDS011;10973;46.706;12.340;2022-11-20T06:58:41;17.87;;;10.77;;
21621;SDS011;10973;46.706;12.340;2022-11-20T07:01:12;23.30;;;13.73;;
21621;SDS011;10973;46.706;12.340;2022-11-20T07:03:42;27.53;;;15.90;;
21621;SDS011;10973;46.706;12.340;2022-11-20T07:06:09;26.10;;;16.97;;
21621;SDS011;10973;46.706;12.340;2022-11-20T07:08:37;32.93;;;19.87;;
21621;SDS011;10973;46.706;12.340;2022-11-20T07:11:05;39.10;;;22.73;;
21621;SDS011;10973;46.706;12.340;2022-11-20T07:13:34;45.90;;;22.53;;
21621;SDS011;10973;46.706;12.340;2022-11-20T07:16:02;35.43;;;21.20;;
21621;SDS011;10973;46.706;12.340;2022-11-20T07:18:33;39.03;;;22.10;;
21621;SDS011;10973;46.706;12.340;2022-11-20T07:21:05;34.30;;;20.17;;
21621;SDS011;10973;46.706;12.340;2022-11-20T07:23:35;27.90;;;16.30;;
21621;SDS011;10973;46.706;12.340;2022-11-20T07:26:07;22.70;;;15.53;;
21621;SDS011;10973;46.706;12.340;2022-11-20T07:28:37;24.00;;;15.27;;
21621;SDS011;10973;46.706;12.340;2022-11-20T07:31:04;25.10;;;13.37;;
21621;SDS011;10973;46.706;12.340;2022-11-20T07:33:33;29.17;;;15.23;;
21621;SDS011;10973;46.706;12.340;2022-11-20T07:36:00;30.70;;;15.17;;
21621;SDS011;10973;46.706;12.340;2022-11-20T07:38:28;27.03;;;14.43;;
21621;SDS011;10973;46.706;12.340;2022-11-20T07:40:56;21.07;;;12.50;;
21621;SDS011;10973;46.706;12.340;2022-11-20T07:43:24;21.43;;;13.23;;
21621;SDS011;10973;46.706;12.340;2022-11-20T07:45:51;18.50;;;12.07;;
21621;SDS011;10973;46.706;12.340;2022-11-20T07:48:22;28.23;;;13.13;;
21621;SDS011;10973;46.706;12.340;2022-11-20T07:50:53;24.70;;;13.00;;
21621;SDS011;10973;46.706;12.340;2022-11-20T07:53:24;14.40;;;9.33;;
21621;SDS011;10973;46.706;12.340;2022-11-20T07:55:51;16.90;;;10.63;;
21621;SDS011;10973;46.706;12.340;2022-11-20T07:58:19;14.20;;;9.73;;
21621;SDS011;10973;46.706;12.340;2022-11-20T08:00:47;19.63;;;10.03;;
21621;SDS011;10973;46.706;12.340;2022-11-20T08:03:15;14.37;;;9.20;;
21621;SDS011;10973;46.706;12.340;2022-11-20T08:05:50;13.13;;;8.90;;
21621;SDS011;10973;46.706;12.340;2022-11-20T08:08:17;15.57;;;9.83;;
21621;SDS011;10973;46.706;12.340;2022-11-20T08:10:44;16.73;;;9.27;;
21621;SDS011;10973;46.706;12.340;2022-11-20T08:13:12;13.67;;;8.53;;
21621;SDS011;10973;46.706;12.340;2022-11-20T08:15:39;14.73;;;8.70;;
21621;SDS011;10973;46.706;12.340;2022-11-20T08:18:10;12.97;;;8.33;;
21621;SDS011;10973;46.706;12.340;2022-11-20T08:20:56;11.30;;;7.97;;
21621;SDS011;10973;46.706;12.340;2022-11-20T08:23:24;12.90;;;6.83;;
21621;SDS011;10973;46.706;12.340;2022-11-20T08:25:52;6.33;;;5.00;;
21621;SDS011;10973;46.706;12.340;2022-11-20T08:28:23;7.07;;;4.83;;
21621;SDS011;10973;46.706;12.340;2022-11-20T08:31:00;7.43;;;3.37;;
21621;SDS011;10973;46.706;12.340;2022-11-20T08:33:28;5.87;;;3.73;;
21621;SDS011;10973;46.706;12.340;2022-11-20T08:36:00;3.30;;;3.00;;
21621;SDS011;10973;46.706;12.340;2022-11-20T08:38:33;4.73;;;3.13;;
21621;SDS011;10973;46.706;12.340;2022-11-20T08:41:03;5.93;;;3.07;;
21621;SDS011;10973;46.706;12.340;2022-11-20T08:43:31;4.50;;;2.80;;
21621;SDS011;10973;46.706;12.340;2022-11-20T08:45:58;5.30;;;3.13;;
21621;SDS011;10973;46.706;12.340;2022-11-20T08:48:26;6.33;;;3.13;;
21621;SDS011;10973;46.706;12.340;2022-11-20T08:50:57;5.27;;;2.73;;
21621;SDS011;10973;46.706;12.340;2022-11-20T08:53:26;2.80;;;2.43;;
21621;SDS011;10973;46.706;12.340;2022-11-20T08:55:54;2.10;;;2.00;;
21621;SDS011;10973;46.706;12.340;2022-11-20T08:58:24;2.17;;;2.00;;
21621;SDS011;10973;46.706;12.340;2022-11-20T09:00:52;3.70;;;2.50;;
21621;SDS011;10973;46.706;12.340;2022-11-20T09:03:20;4.40;;;2.67;;
21621;SDS011;10973;46.706;12.340;2022-11-20T09:05:47;2.60;;;2.40;;
21621;SDS011;10973;46.706;12.340;2022-11-20T09:08:14;4.00;;;3.60;;
21621;SDS011;10973;46.706;12.340;2022-11-20T09:10:42;5.50;;;3.77;;
21621;SDS011;10973;46.706;12.340;2022-11-20T09:13:09;3.70;;;2.50;;
21621;SDS011;10973;46.706;12.340;2022-11-20T09:15:36;2.50;;;1.80;;
21621;SDS011;10973;46.706;12.340;2022-11-20T09:18:04;1.77;;;1.60;;
21621;SDS011;10973;46.706;12.340;2022-11-20T09:20:32;1.60;;;1.50;;
21621;SDS011;10973;46.706;12.340;2022-11-20T09:23:00;1.90;;;1.80;;
21621;SDS011;10973;46.706;12.340;2022-11-20T09:25:28;4.10;;;2.03;;
21621;SDS011;10973;46.706;12.340;2022-11-20T09:27:56;2.13;;;1.50;;
21621;SDS011;10973;46.706;12.340;2022-11-20T09:30:25;3.77;;;1.73;;
21621;SDS011;10973;46.706;12.340;2022-11-20T09:32:53;1.53;;;1.43;;
21621;SDS011;10973;46.706;12.340;2022-11-20T09:35:20;2.07;;;1.50;;
21621;SDS011;10973;46.706;12.340;2022-11-20T09:37:51;1.50;;;1.50;;
21621;SDS011;10973;46.706;12.340;2022-11-20T09:40:28;1.30;;;1.20;;
21621;SDS011;10973;46.706;12.340;2022-11-20T09:49:21;1.50;;;1.40;;
21621;SDS011;10973;46.706;12.340;2022-11-20T09:52:16;1.20;;;1.20;;
21621;SDS011;10973;46.706;12.340;2022-11-20T09:55:16;1.30;;;1.20;;
21621;SDS011;10973;46.706;12.340;2022-11-20T09:57:44;1.37;;;1.37;;
21621;SDS011;10973;46.706;12.340;2022-11-20T10:00:17;1.30;;;1.20;;
21621;SDS011;10973;46.706;12.340;2022-11-20T10:05:53;1.30;;;1.30;;
21621;SDS011;10973;46.706;12.340;2022-11-20T10:08:25;1.30;;;1.30;;
21621;SDS011;10973;46.706;12.340;2022-11-20T10:11:14;1.40;;;1.40;;
21621;SDS011;10973;46.706;12.340;2022-11-20T10:14:12;1.10;;;1.10;;
21621;SDS011;10973;46.706;12.340;2022-11-20T10:34:35;1.73;;;1.10;;
21621;SDS011;10973;46.706;12.340;2022-11-20T10:37:27;1.00;;;1.00;;
21621;SDS011;10973;46.706;12.340;2022-11-20T10:39:59;1.17;;;1.17;;
21621;SDS011;10973;46.706;12.340;2022-11-20T10:42:48;1.10;;;1.10;;
21621;SDS011;10973;46.706;12.340;2022-11-20T10:45:46;1.10;;;1.10;;
21621;SDS011;10973;46.706;12.340;2022-11-20T10:48:45;1.00;;;1.00;;
21621;SDS011;10973;46.706;12.340;2022-11-20T10:56:46;0.90;;;0.90;;
21621;SDS011;10973;46.706;12.340;2022-11-20T11:02:24;1.00;;;1.00;;
21621;SDS011;10973;46.706;12.340;2022-11-20T11:05:40;1.00;;;1.00;;
21621;SDS011;10973;46.706;12.340;2022-11-20T11:08:18;0.90;;;0.90;;
21621;SDS011;10973;46.706;12.340;2022-11-20T11:14:11;1.10;;;1.10;;
21621;SDS011;10973;46.706;12.340;2022-11-20T11:16:51;1.00;;;1.00;;
21621;SDS011;10973;46.706;12.340;2022-11-20T11:19:19;1.33;;;1.07;;
21621;SDS011;10973;46.706;12.340;2022-11-20T11:21:48;1.00;;;1.00;;
21621;SDS011;10973;46.706;12.340;2022-11-20T11:24:29;1.00;;;1.00;;
21621;SDS011;10973;46.706;12.340;2022-11-20T11:27:14;0.93;;;0.93;;
21621;SDS011;10973;46.706;12.340;2022-11-20T11:29:43;0.80;;;0.80;;
21621;SDS011;10973;46.706;12.340;2022-11-20T11:32:13;0.90;;;0.90;;
21621;SDS011;10973;46.706;12.340;2022-11-20T11:34:45;1.07;;;0.90;;
21621;SDS011;10973;46.706;12.340;2022-11-20T11:37:25;1.00;;;1.00;;
21621;SDS011;10973;46.706;12.340;2022-11-20T11:40:04;0.80;;;0.80;;
21621;SDS011;10973;46.706;12.340;2022-11-20T11:42:52;0.80;;;0.80;;
21621;SDS011;10973;46.706;12.340;2022-11-20T11:45:24;1.00;;;1.00;;
21621;SDS011;10973;46.706;12.340;2022-11-20T11:47:53;1.00;;;1.00;;
21621;SDS011;10973;46.706;12.340;2022-11-20T11:50:27;0.93;;;0.93;;
21621;SDS011;10973;46.706;12.340;2022-11-20T11:53:11;0.83;;;0.83;;
21621;SDS011;10973;46.706;12.340;2022-11-20T11:55:45;0.60;;;0.60;;
21621;SDS011;10973;46.706;12.340;2022-11-20T11:58:46;0.80;;;0.80;;
21621;SDS011;10973;46.706;12.340;2022-11-20T12:10:24;0.87;;;0.87;;
21621;SDS011;10973;46.706;12.340;2022-11-20T12:16:10;0.90;;;0.90;;
21621;SDS011;10973;46.706;12.340;2022-11-20T12:18:41;7.13;;;1.77;;
21621;SDS011;10973;46.706;12.340;2022-11-20T12:30:25;0.80;;;0.80;;
21621;SDS011;10973;46.706;12.340;2022-11-20T12:36:07;0.80;;;0.80;;
21621;SDS011;10973;46.706;12.340;2022-11-20T12:42:08;0.90;;;0.90;;
21621;SDS011;10973;46.706;12.340;2022-11-20T12:45:14;0.90;;;0.90;;
21621;SDS011;10973;46.706;12.340;2022-11-20T12:47:58;1.67;;;1.10;;
21621;SDS011;10973;46.706;12.340;2022-11-20T12:50:51;1.00;;;1.00;;
21621;SDS011;10973;46.706;12.340;2022-11-20T12:57:18;0.80;;;0.80;;
21621;SDS011;10973;46.706;12.340;2022-11-20T13:08:41;1.13;;;1.13;;
21621;SDS011;10973;46.706;12.340;2022-11-20T13:11:21;1.00;;;1.00;;
21621;SDS011;10973;46.706;12.340;2022-11-20T13:17:34;2.63;;;1.30;;
21621;SDS011;10973;46.706;12.340;2022-11-20T13:20:15;3.87;;;1.40;;
21621;SDS011;10973;46.706;12.340;2022-11-20T13:25:37;1.80;;;1.70;;
21621;SDS011;10973;46.706;12.340;2022-11-20T13:30:48;2.37;;;1.77;;
21621;SDS011;10973;46.706;12.340;2022-11-20T13:33:28;1.90;;;1.67;;
21621;SDS011;10973;46.706;12.340;2022-11-20T13:36:05;1.70;;;1.60;;
21621;SDS011;10973;46.706;12.340;2022-11-20T13:38:48;2.17;;;2.07;;
21621;SDS011;10973;46.706;12.340;2022-11-20T13:41:28;1.50;;;1.50;;
21621;SDS011;10973;46.706;12.340;2022-11-20T13:44:05;1.60;;;1.50;;
21621;SDS011;10973;46.706;12.340;2022-11-20T13:46:50;2.37;;;1.70;;
21621;SDS011;10973;46.706;12.340;2022-11-20T13:52:00;3.43;;;2.00;;
21621;SDS011;10973;46.706;12.340;2022-11-20T14:00:11;17.90;;;8.47;;
21621;SDS011;10973;46.706;12.340;2022-11-20T14:02:46;17.03;;;7.87;;
21621;SDS011;10973;46.706;12.340;2022-11-20T14:05:35;6.87;;;4.43;;
21621;SDS011;10973;46.706;12.340;2022-11-20T14:08:06;9.57;;;7.10;;
21621;SDS011;10973;46.706;12.340;2022-11-20T14:11:11;11.20;;;7.73;;
21621;SDS011;10973;46.706;12.340;2022-11-20T14:16:48;35.03;;;19.47;;
21621;SDS011;10973;46.706;12.340;2022-11-20T14:21:52;14.50;;;10.00;;
21621;SDS011;10973;46.706;12.340;2022-11-20T14:24:34;4.33;;;3.77;;
21621;SDS011;10973;46.706;12.340;2022-11-20T14:27:01;4.70;;;3.10;;
21621;SDS011;10973;46.706;12.340;2022-11-20T14:29:29;3.50;;;3.20;;
21621;SDS011;10973;46.706;12.340;2022-11-20T14:32:02;9.17;;;6.90;;
21621;SDS011;10973;46.706;12.340;2022-11-20T14:34:32;10.73;;;8.37;;
21621;SDS011;10973;46.706;12.340;2022-11-20T14:37:10;7.43;;;4.17;;
21621;SDS011;10973;46.706;12.340;2022-11-20T14:39:51;6.67;;;4.23;;
21621;SDS011;10973;46.706;12.340;2022-11-20T14:42:23;10.70;;;3.17;;
21621;SDS011;10973;46.706;12.340;2022-11-20T14:44:57;3.70;;;2.70;;
21621;SDS011;10973;46.706;12.340;2022-11-20T14:47:29;3.67;;;3.00;;
21621;SDS011;10973;46.706;12.340;2022-11-20T14:49:57;5.20;;;3.03;;
21621;SDS011;10973;46.706;12.340;2022-11-20T14:52:34;5.77;;;3.97;;
21621;SDS011;10973;46.706;12.340;2022-11-20T14:55:01;6.20;;;5.23;;
21621;SDS011;10973;46.706;12.340;2022-11-20T14:57:32;6.80;;;3.93;;
21621;SDS011;10973;46.706;12.340;2022-11-20T15:00:04;14.47;;;6.50;;
21621;SDS011;10973;46.706;12.340;2022-11-20T15:02:33;12.33;;;8.13;;
21621;SDS011;10973;46.706;12.340;2022-11-20T15:05:05;8.00;;;5.60;;
21621;SDS011;10973;46.706;12.340;2022-11-20T15:07:34;11.17;;;5.73;;
21621;SDS011;10973;46.706;12.340;2022-11-20T15:10:22;14.50;;;8.63;;
21621;SDS011;10973;46.706;12.340;2022-11-20T15:13:01;14.03;;;7.57;;
21621;SDS011;10973;46.706;12.340;2022-11-20T15:15:48;13.43;;;9.50;;
21621;SDS011;10973;46.706;12.340;2022-11-20T15:18:19;23.20;;;12.33;;
21621;SDS011;10973;46.706;12.340;2022-11-20T15:20:54;14.30;;;8.07;;
21621;SDS011;10973;46.706;12.340;2022-11-20T15:23:24;16.30;;;11.43;;
21621;SDS011;10973;46.706;12.340;2022-11-20T15:25:54;18.23;;;10.30;;
21621;SDS011;10973;46.706;12.340;2022-11-20T15:31:02;19.47;;;11.13;;
21621;SDS011;10973;46.706;12.340;2022-11-20T15:33:31;15.30;;;11.10;;
21621;SDS011;10973;46.706;12.340;2022-11-20T15:36:00;22.40;;;12.60;;
21621;SDS011;10973;46.706;12.340;2022-11-20T15:38:27;27.33;;;17.33;;
21621;SDS011;10973;46.706;12.340;2022-11-20T15:40:55;18.33;;;12.20;;
21621;SDS011;10973;46.706;12.340;2022-11-20T15:43:22;21.57;;;13.53;;
21621;SDS011;10973;46.706;12.340;2022-11-20T15:45:54;18.33;;;12.70;;
21621;SDS011;10973;46.706;12.340;2022-11-20T15:48:34;19.03;;;12.43;;
21621;SDS011;10973;46.706;12.340;2022-11-20T15:54:11;23.53;;;15.20;;
21621;SDS011;10973;46.706;12.340;2022-11-20T15:56:46;20.23;;;9.80;;
21621;SDS011;10973;46.706;12.340;2022-11-20T15:59:15;25.00;;;12.73;;
21621;SDS011;10973;46.706;12.340;2022-11-20T16:01:43;20.83;;;11.40;;
21621;SDS011;10973;46.706;12.340;2022-11-20T16:04:11;16.43;;;10.53;;
21621;SDS011;10973;46.706;12.340;2022-11-20T16:06:41;13.20;;;8.00;;
21621;SDS011;10973;46.706;12.340;2022-11-20T16:09:09;7.43;;;5.00;;
21621;SDS011;10973;46.706;12.340;2022-11-20T16:11:37;4.23;;;3.20;;
21621;SDS011;10973;46.706;12.340;2022-11-20T16:14:04;5.40;;;3.37;;
21621;SDS011;10973;46.706;12.340;2022-11-20T16:16:33;19.87;;;10.27;;
21621;SDS011;10973;46.706;12.340;2022-11-20T16:19:03;20.27;;;10.40;;
21621;SDS011;10973;46.706;12.340;2022-11-20T16:21:31;19.67;;;9.23;;
21621;SDS011;10973;46.706;12.340;2022-11-20T16:23:58;17.83;;;9.00;;
21621;SDS011;10973;46.706;12.340;2022-11-20T16:26:29;19.43;;;10.83;;
21621;SDS011;10973;46.706;12.340;2022-11-20T16:28:58;21.43;;;10.67;;
21621;SDS011;10973;46.706;12.340;2022-11-20T16:31:27;15.53;;;9.40;;
21621;SDS011;10973;46.706;12.340;2022-11-20T16:33:55;6.73;;;5.83;;
21621;SDS011;10973;46.706;12.340;2022-11-20T16:36:26;9.87;;;7.33;;
21621;SDS011;10973;46.706;12.340;2022-11-20T16:38:55;11.77;;;7.30;;
21621;SDS011;10973;46.706;12.340;2022-11-20T16:41:30;14.57;;;8.20;;
21621;SDS011;10973;46.706;12.340;2022-11-20T16:44:01;12.57;;;7.60;;
21621;SDS011;10973;46.706;12.340;2022-11-20T16:46:33;16.03;;;8.57;;
21621;SDS011;10973;46.706;12.340;2022-11-20T16:49:04;14.37;;;8.23;;